createdAt,value
2022-12-19T00:01:38.411Z,99852.22
2022-12-19T00:04:09.115Z,99839.44
2022-12-19T00:06:41.392Z,99861.84
2022-12-19T00:09:10.651Z,99844.66
2022-12-19T00:11:38.874Z,99855.81
2022-12-19T00:14:06.664Z,99859.22
2022-12-19T00:16:33.970Z,99868.75
2022-12-19T00:19:02.150Z,99865.47
2022-12-19T00:21:33.977Z,99870.50
2022-12-19T00:24:03.320Z,99874.84
2022-12-19T00:26:34.165Z,99876.59
2022-12-19T00:29:06.772Z,99877.50
2022-12-19T00:31:36.987Z,99886.09
2022-12-19T00:34:04.202Z,99884.31
2022-12-19T00:36:34.545Z,99884.28
2022-12-19T00:39:02.569Z,99883.38
2022-12-19T00:41:36.719Z,99882.56
2022-12-19T00:44:07.189Z,99885.16
2022-12-19T00:46:35.591Z,99886.91
2022-12-19T00:49:03.522Z,99880.91
2022-12-19T00:51:33.183Z,99873.97
2022-12-19T00:54:00.232Z,99873.97
2022-12-19T00:56:35.710Z,99878.31
2022-12-19T00:59:07.135Z,99866.28
2022-12-19T01:01:37.325Z,99870.47
2022-12-19T01:06:54.412Z,99871.56
2022-12-19T01:09:32.460Z,99872.41
2022-12-19T01:12:17.952Z,99865.63
2022-12-19T01:14:44.914Z,99869.13
2022-12-19T01:17:12.317Z,99864.88
2022-12-19T01:19:43.990Z,99869.97
2022-12-19T01:22:13.426Z,99865.78
2022-12-19T01:24:40.892Z,99877.81
2022-12-19T01:27:09.006Z,99867.50
2022-12-19T01:29:40.456Z,99869.13
2022-12-19T01:32:20.119Z,99865.78
2022-12-19T01:34:47.114Z,99857.19
2022-12-19T01:37:17.506Z,99874.22
2022-12-19T01:39:44.966Z,99865.59
2022-12-19T01:42:23.225Z,99876.00
2022-12-19T01:45:07.828Z,99878.59
2022-12-19T01:47:47.502Z,99870.03
2022-12-19T01:50:37.763Z,99868.47
2022-12-19T01:53:11.237Z,99866.88
2022-12-19T01:55:41.399Z,99878.03
2022-12-19T01:58:10.691Z,99878.97
2022-12-19T02:00:37.868Z,99877.38
2022-12-19T02:03:14.681Z,99878.19
2022-12-19T02:05:44.825Z,99877.41
2022-12-19T02:08:13.977Z,99890.97
2022-12-19T02:10:40.885Z,99896.22
2022-12-19T02:13:08.268Z,99902.41
2022-12-19T02:16:07.962Z,99895.53
2022-12-19T02:18:52.149Z,99898.19
2022-12-19T02:21:19.117Z,99893.94
2022-12-19T02:23:46.860Z,99900.88
2022-12-19T02:26:37.546Z,99906.94
2022-12-19T02:29:08.065Z,99908.69
2022-12-19T02:31:50.838Z,99898.31
2022-12-19T02:34:39.941Z,99905.22
2022-12-19T02:37:22.062Z,99906.97
2022-12-19T02:40:17.062Z,99904.38
2022-12-19T02:42:48.327Z,99909.53
2022-12-19T02:45:24.677Z,99926.66
2022-12-19T02:47:59.200Z,99924.03
2022-12-19T02:50:48.423Z,99930.81
2022-12-19T02:53:18.213Z,99940.28
2022-12-19T02:56:12.971Z,99938.66
2022-12-19T02:58:48.540Z,99940.38
2022-12-19T03:01:40.226Z,99948.06
2022-12-19T03:04:20.763Z,99956.78
2022-12-19T03:06:53.993Z,99959.44
2022-12-19T03:09:27.562Z,99961.94
2022-12-19T03:12:04.210Z,99955.91
2022-12-19T03:14:33.087Z,99957.44
2022-12-19T03:17:06.126Z,99965.34
2022-12-19T03:19:35.918Z,99959.44
2022-12-19T03:22:02.775Z,99975.78
2022-12-19T03:24:30.084Z,99968.00
2022-12-19T03:27:05.146Z,99969.75
2022-12-19T03:29:37.009Z,99980.91
2022-12-19T03:32:07.621Z,99984.34
2022-12-19T03:34:49.116Z,99990.34
2022-12-19T03:37:20.679Z,99995.38
2022-12-19T03:39:54.484Z,99995.41
2022-12-19T03:42:44.111Z,99998.91
2022-12-19T03:45:13.750Z,99998.97
2022-12-19T03:47:50.429Z,100000.78
2022-12-19T03:50:18.581Z,100002.44
2022-12-19T03:53:02.152Z,99994.81
2022-12-19T03:55:46.600Z,100006.03
2022-12-19T03:58:19.175Z,99998.28
2022-12-19T04:00:48.455Z,100007.69
2022-12-19T04:03:19.814Z,100001.69
2022-12-19T04:05:49.019Z,100012.88
2022-12-19T04:08:36.743Z,100008.66
2022-12-19T04:11:14.213Z,100009.56
2022-12-19T04:13:47.079Z,100009.56
2022-12-19T04:16:20.627Z,100012.22
2022-12-19T04:18:53.663Z,100021.63
2022-12-19T04:21:30.681Z,100015.69
2022-12-19T04:24:04.699Z,100014.78
2022-12-19T04:26:35.193Z,100024.25
2022-12-19T04:29:05.980Z,100025.06
2022-12-19T04:31:33.187Z,100028.56
2022-12-19T04:34:00.455Z,100029.38
2022-12-19T04:36:27.515Z,100043.09
2022-12-19T04:38:54.538Z,100045.66
2022-12-19T04:41:21.490Z,100039.66
2022-12-19T04:43:48.538Z,100040.53
2022-12-19T04:46:15.656Z,100044.03
2022-12-19T04:48:42.702Z,100048.28
2022-12-19T04:51:09.860Z,100052.69
2022-12-19T04:53:36.805Z,100050.16
2022-12-19T04:56:06.302Z,100047.66
2022-12-19T04:58:33.987Z,100055.38
2022-12-19T05:01:02.665Z,100059.66
2022-12-19T05:03:29.613Z,100075.00
2022-12-19T05:06:29.177Z,100067.38
2022-12-19T05:08:56.119Z,100064.94
2022-12-19T05:11:23.036Z,100065.00
2022-12-19T05:13:50.274Z,100071.88
2022-12-19T05:16:17.972Z,100077.09
2022-12-19T05:18:45.131Z,100071.13
2022-12-19T05:21:12.734Z,100079.72
2022-12-19T05:23:39.761Z,100078.97
2022-12-19T05:26:07.439Z,100079.00
2022-12-19T05:28:34.619Z,100085.91
2022-12-19T05:31:09.567Z,100088.47
2022-12-19T05:33:37.583Z,100099.66
2022-12-19T05:36:05.535Z,100096.25
2022-12-19T05:38:32.741Z,100103.13
2022-12-19T05:40:59.937Z,100099.72
2022-12-19T05:43:27.737Z,100112.53
2022-12-19T05:45:54.643Z,100105.69
2022-12-19T05:48:21.567Z,100108.31
2022-12-19T05:50:50.333Z,100106.66
2022-12-19T05:53:24.619Z,100111.78
2022-12-19T05:55:53.043Z,100116.06
2022-12-19T05:58:20.102Z,100119.50
2022-12-19T06:00:46.923Z,100120.38
2022-12-19T06:03:13.864Z,100122.06
2022-12-19T06:05:40.865Z,100123.78
2022-12-19T06:08:08.262Z,100129.75
2022-12-19T06:10:35.286Z,100134.03
2022-12-19T06:13:02.206Z,100140.91
2022-12-19T06:15:29.473Z,100145.19
2022-12-19T06:17:56.398Z,100147.72
2022-12-19T06:20:23.305Z,100150.31
2022-12-19T06:22:50.314Z,100151.16
2022-12-19T06:25:17.220Z,100165.72
2022-12-19T06:27:44.117Z,100170.84
2022-12-19T06:30:11.617Z,100175.16
2022-12-19T06:32:38.611Z,100164.88
2022-12-19T06:35:06.232Z,100170.88
2022-12-19T06:37:33.220Z,100166.59
2022-12-19T06:40:00.187Z,100176.84
2022-12-19T06:42:27.083Z,100178.53
2022-12-19T06:44:56.334Z,100186.22
2022-12-19T06:47:24.755Z,100183.66
2022-12-19T06:49:51.802Z,100192.22
2022-12-19T06:52:18.951Z,100199.91
2022-12-19T06:54:45.945Z,100193.06
2022-12-19T06:57:12.809Z,100202.47
2022-12-19T06:59:39.840Z,100195.63
2022-12-19T07:02:27.552Z,100200.75
2022-12-19T07:05:02.603Z,100205.06
2022-12-19T07:07:29.871Z,100210.22
2022-12-19T07:09:56.808Z,100210.25
2022-12-19T07:12:23.909Z,100211.94
2022-12-19T07:14:53.539Z,100217.06
2022-12-19T07:17:23.999Z,100218.75
2022-12-19T07:19:51.609Z,100224.75
2022-12-19T07:22:18.827Z,100224.66
2022-12-19T07:24:46.173Z,100231.50
2022-12-19T07:27:13.109Z,100232.38
2022-12-19T07:29:40.006Z,100233.25
2022-12-19T07:32:06.926Z,100244.38
2022-12-19T07:34:33.887Z,100236.72
2022-12-19T07:37:00.791Z,100240.13
2022-12-19T07:39:27.682Z,100247.00
2022-12-19T07:41:54.551Z,100246.97
2022-12-19T07:44:32.717Z,100253.78
2022-12-19T07:46:59.663Z,100256.31
2022-12-19T07:49:26.570Z,100260.66
2022-12-19T07:51:53.484Z,100268.31
2022-12-19T07:54:20.404Z,100270.91
2022-12-19T07:56:47.329Z,100271.75
2022-12-19T07:59:14.519Z,100276.06
2022-12-19T08:01:41.475Z,100283.75
2022-12-19T08:04:08.448Z,100287.19
2022-12-19T08:06:40.769Z,100290.63
2022-12-19T08:09:08.405Z,100295.75
2022-12-19T08:11:35.551Z,100300.91
2022-12-19T08:14:02.515Z,100299.97
2022-12-19T08:16:29.536Z,100290.53
2022-12-19T08:18:56.589Z,100301.63
2022-12-19T08:21:24.105Z,100306.72
2022-12-19T08:23:52.185Z,100304.97
2022-12-19T08:26:25.445Z,100299.72
2022-12-19T08:28:57.392Z,100303.84
2022-12-19T08:31:26.856Z,100304.75
2022-12-19T08:33:56.331Z,100295.25
2022-12-19T08:36:23.959Z,100303.25
2022-12-19T08:38:52.470Z,100293.75
2022-12-19T08:41:19.856Z,100299.75
2022-12-19T08:43:51.573Z,100293.63
2022-12-19T08:46:19.909Z,100296.19
2022-12-19T08:48:47.188Z,100297.72
2022-12-19T08:51:15.207Z,100296.09
2022-12-19T08:53:43.922Z,100297.72
2022-12-19T08:56:12.419Z,100291.88
2022-12-19T08:58:39.564Z,100297.00
2022-12-19T09:01:09.296Z,100283.34
2022-12-19T09:03:44.944Z,100287.47
2022-12-19T09:06:24.951Z,100283.25
2022-12-19T09:08:52.275Z,100277.16
2022-12-19T09:11:21.182Z,100277.00
2022-12-19T09:13:48.701Z,100274.34
2022-12-19T09:16:19.364Z,100274.47
2022-12-19T09:18:49.424Z,100272.72
2022-12-19T09:21:18.607Z,100276.16
2022-12-19T09:23:54.377Z,100268.19
2022-12-19T09:26:23.504Z,100262.13
2022-12-19T09:28:51.709Z,100264.59
2022-12-19T09:31:24.173Z,100258.56
2022-12-19T09:33:52.065Z,100261.09
2022-12-19T09:36:22.215Z,100254.09
2022-12-19T09:38:50.362Z,100250.72
2022-12-19T09:41:35.979Z,100267.63
2022-12-19T10:18:03.324Z,100195.06
2022-12-19T10:20:35.724Z,100198.44
2022-12-19T10:23:09.583Z,100200.22
2022-12-19T10:26:27.375Z,100194.09
2022-12-19T10:29:08.954Z,100193.03
2022-12-19T10:31:57.908Z,100192.63
2022-12-19T10:34:40.792Z,100192.22
2022-12-19T10:37:38.498Z,100185.72
2022-12-19T10:40:13.120Z,100195.50
2022-12-19T10:42:55.037Z,100187.47
2022-12-19T10:45:24.087Z,100190.16
2022-12-19T10:47:56.694Z,100181.16
2022-12-19T10:50:32.173Z,100188.50
2022-12-19T10:53:05.056Z,100182.13
2022-12-19T10:55:40.528Z,100184.03
2022-12-19T10:58:32.517Z,100188.38
2022-12-19T11:01:15.756Z,100187.19
2022-12-19T11:03:47.033Z,100175.78
2022-12-19T11:06:35.229Z,100175.81
2022-12-19T11:09:25.164Z,100174.63
2022-12-19T11:13:30.974Z,100168.44
2022-12-19T11:18:29.528Z,100169.72
2022-12-19T11:26:51.744Z,100179.25
2022-12-19T11:29:31.407Z,100174.84
2022-12-19T11:29:33.658Z,100172.28
2022-12-19T11:29:54.113Z,100177.59
2022-12-19T11:30:46.601Z,100168.25
2022-12-19T11:34:30.163Z,100171.94
2022-12-19T11:37:00.664Z,100158.28
2022-12-19T11:39:41.906Z,100166.94
2022-12-19T11:42:42.938Z,100165.31
2022-12-19T11:45:22.702Z,100172.94
2022-12-19T11:48:03.991Z,100166.03
2022-12-19T11:50:40.911Z,100173.78
2022-12-19T11:53:19.765Z,100160.69
2022-12-19T11:55:53.674Z,100167.72
2022-12-19T11:58:25.207Z,100163.50
2022-12-19T12:01:14.045Z,100157.63
2022-12-19T12:04:22.331Z,100160.22
2022-12-19T12:06:52.731Z,100170.75
2022-12-19T12:13:47.726Z,100159.56
2022-12-19T12:21:22.439Z,100161.88
2022-12-19T12:26:55.057Z,100159.56
2022-12-19T12:30:49.319Z,100151.72
2022-12-19T12:31:17.153Z,100162.16
2022-12-19T12:31:20.454Z,100169.78
2022-12-19T12:31:43.273Z,100174.53
2022-12-19T12:31:46.923Z,100177.00
2022-12-19T12:35:52.366Z,100168.44
2022-12-19T12:40:10.344Z,100178.88
2022-12-19T12:42:53.351Z,100185.81
2022-12-19T12:45:47.080Z,100176.31
2022-12-19T12:48:27.951Z,100178.16
2022-12-19T12:50:56.964Z,100184.13
2022-12-19T12:53:28.106Z,100178.19
2022-12-19T12:55:57.959Z,100172.22
2022-12-19T12:58:49.136Z,100178.28
2022-12-19T13:01:29.439Z,100175.84
2022-12-19T13:04:02.917Z,100181.03
2022-12-19T13:06:40.041Z,100183.59
2022-12-19T13:09:09.981Z,100180.25
2022-12-19T13:12:05.574Z,100181.91
2022-12-19T13:14:35.657Z,100178.47
2022-12-19T13:17:04.605Z,100181.94
2022-12-19T13:19:55.032Z,100191.28
2022-12-19T13:22:42.138Z,100193.88
2022-12-19T13:25:26.970Z,100196.38
2022-12-19T13:28:03.816Z,100193.94
2022-12-19T13:30:36.926Z,100196.47
2022-12-19T13:33:19.738Z,100200.88
2022-12-19T13:39:49.731Z,100200.97
2022-12-19T13:39:50.088Z,100196.69
2022-12-19T13:42:00.369Z,100189.94
2022-12-19T13:44:28.155Z,100195.97
2022-12-19T13:46:55.871Z,100205.44
2022-12-19T13:49:35.117Z,100206.31
2022-12-19T13:52:04.464Z,100208.97
2022-12-19T13:54:37.233Z,100200.41
2022-12-19T13:57:22.096Z,100208.97
2022-12-19T13:59:59.350Z,100205.56
2022-12-19T14:02:34.943Z,100199.66
2022-12-19T14:06:14.266Z,100206.53
2022-12-19T14:08:19.822Z,100218.56
2022-12-19T14:11:38.664Z,100226.28
2022-12-19T14:14:10.301Z,100226.28
2022-12-19T14:16:45.599Z,100222.03
2022-12-19T14:19:26.935Z,100227.19
2022-12-19T14:22:04.512Z,100227.19
2022-12-19T14:24:40.734Z,100223.78
2022-12-19T14:28:18.784Z,100228.97
2022-12-19T14:30:29.330Z,100226.41
2022-12-19T14:33:45.707Z,100220.44
2022-12-19T14:36:12.362Z,100229.00
2022-12-19T14:39:22.027Z,100226.44
2022-12-19T14:41:47.769Z,100223.03
2022-12-19T14:54:01.753Z,100214.50
2022-12-19T14:54:02.164Z,100218.78
2022-12-19T14:54:14.696Z,100223.09
2022-12-19T14:54:32.219Z,100224.81
2022-12-19T14:59:01.660Z,100214.56
2022-12-19T15:01:34.291Z,100218.00
2022-12-19T15:04:48.303Z,100217.16
2022-12-19T15:07:06.812Z,100211.13
2022-12-19T15:11:06.967Z,100218.84
2022-12-19T15:14:51.990Z,100225.69
2022-12-19T15:16:07.641Z,100230.81
2022-12-19T15:18:42.746Z,100241.97
2022-12-19T15:21:14.830Z,100245.41
2022-12-19T15:23:44.343Z,100244.50
2022-12-19T15:26:20.584Z,100241.97
2022-12-19T15:28:52.988Z,100238.53
2022-12-19T15:31:28.823Z,100247.94
2022-12-19T15:36:43.406Z,100248.81
2022-12-19T15:39:10.462Z,100251.38
2022-12-19T15:41:37.422Z,100253.09
2022-12-19T15:44:25.056Z,100268.47
2022-12-19T15:46:52.371Z,100259.94
2022-12-19T15:49:20.675Z,100263.38
2022-12-19T15:51:48.730Z,100265.06
2022-12-19T15:57:03.557Z,100272.78
2022-12-19T15:59:44.430Z,100261.66
2022-12-19T16:02:18.249Z,100264.22
2022-12-19T16:04:47.977Z,100263.34
2022-12-19T16:07:23.967Z,100264.22
2022-12-19T16:09:51.325Z,100266.78
2022-12-19T16:12:27.353Z,100265.94
2022-12-19T16:14:58.231Z,100260.81
2022-12-19T16:17:27.358Z,100267.63
2022-12-19T16:19:54.416Z,100255.66
2022-12-19T16:22:23.799Z,100264.22
2022-12-19T16:24:52.569Z,100253.94
2022-12-19T16:27:27.533Z,100259.09
2022-12-19T16:29:55.430Z,100265.94
2022-12-19T16:32:26.600Z,100267.66
2022-12-19T16:34:54.463Z,100263.38
2022-12-19T16:37:23.593Z,100266.78
2022-12-19T16:39:54.146Z,100267.66
2022-12-19T16:42:21.040Z,100283.06
2022-12-19T16:44:48.433Z,100284.78
2022-12-19T16:47:18.843Z,100279.63
2022-12-19T16:49:45.909Z,100281.34
2022-12-19T16:52:12.911Z,100274.47
2022-12-19T16:54:39.884Z,100275.38
2022-12-19T16:57:16.232Z,100269.38
2022-12-19T16:59:43.243Z,100269.38
2022-12-19T17:02:38.330Z,100273.63
2022-12-19T17:05:06.020Z,100275.34
2022-12-19T17:07:32.978Z,100276.22
2022-12-19T17:09:59.970Z,100265.09
2022-12-19T17:12:27.839Z,100272.78
2022-12-19T17:14:54.882Z,100272.78
2022-12-19T17:17:21.960Z,100269.34
2022-12-19T17:19:48.972Z,100262.50
2022-12-19T17:22:18.394Z,100276.22
2022-12-19T17:24:46.904Z,100276.22
2022-12-19T17:27:14.680Z,100295.03
2022-12-19T17:29:41.618Z,100282.22
2022-12-19T17:32:19.777Z,100276.19
2022-12-19T17:34:51.109Z,100289.06
2022-12-19T17:37:18.111Z,100287.31
2022-12-19T17:39:45.111Z,100270.22
2022-12-19T17:42:36.912Z,100267.66
2022-12-19T17:45:04.821Z,100269.38
2022-12-19T17:47:32.620Z,100263.38
2022-12-19T17:50:00.133Z,100259.94
2022-12-19T17:52:27.086Z,100254.81
2022-12-19T17:54:54.021Z,100254.78
2022-12-19T17:57:21.068Z,100247.91
2022-12-19T17:59:48.339Z,100247.94
2022-12-19T18:02:21.707Z,100244.50
2022-12-19T18:04:50.728Z,100240.22
2022-12-19T18:07:18.265Z,100249.63
2022-12-19T18:09:45.525Z,100241.94
2022-12-19T18:12:12.721Z,100244.50
2022-12-19T18:14:40.021Z,100253.91
2022-12-19T18:17:07.115Z,100258.16
2022-12-19T18:19:34.810Z,100247.06
2022-12-19T18:22:02.094Z,100255.59
2022-12-19T18:24:29.190Z,100268.44
2022-12-19T18:26:56.202Z,100257.31
2022-12-19T18:29:23.272Z,100267.59
2022-12-19T18:31:51.444Z,100283.84
2022-12-19T18:34:24.387Z,100278.69
2022-12-19T18:36:52.339Z,100270.16
2022-12-19T18:39:19.275Z,100266.72
2022-12-19T18:41:46.505Z,100270.13
2022-12-19T18:44:13.542Z,100280.41
2022-12-19T18:46:40.869Z,100276.13
2022-12-19T18:49:14.172Z,100275.25
2022-12-19T18:51:41.207Z,100275.25
2022-12-19T18:54:17.320Z,100279.56
2022-12-19T18:56:45.571Z,100271.88
2022-12-19T18:59:13.015Z,100278.72
2022-12-19T19:01:44.397Z,100285.56
2022-12-19T19:04:13.383Z,100281.31
2022-12-19T19:06:50.457Z,100272.72
2022-12-19T19:09:19.770Z,100268.47
2022-12-19T19:12:01.421Z,100265.91
2022-12-19T19:14:28.496Z,100261.59
2022-12-19T19:16:55.589Z,100267.59
2022-12-19T19:19:22.835Z,100260.75
2022-12-19T19:21:49.887Z,100244.47
2022-12-19T19:24:20.993Z,100251.28
2022-12-19T19:26:48.402Z,100247.84
2022-12-19T19:29:15.331Z,100240.16
2022-12-19T19:31:46.151Z,100247.81
2022-12-19T19:34:28.143Z,100252.09
2022-12-19T19:36:59.333Z,100264.88
2022-12-19T19:39:28.085Z,100265.75
2022-12-19T19:41:56.421Z,100268.31
2022-12-19T19:44:23.473Z,100258.94
2022-12-19T19:46:50.484Z,100265.78
2022-12-19T19:49:17.711Z,100265.78
2022-12-19T19:51:44.686Z,100261.50
2022-12-19T19:54:11.851Z,100257.25
2022-12-19T19:56:38.835Z,100264.09
2022-12-19T19:59:05.861Z,100265.81
2022-12-19T20:01:33.048Z,100251.25
2022-12-19T20:04:00.308Z,100249.56
2022-12-19T20:06:27.268Z,100251.31
2022-12-19T20:08:54.168Z,100260.69
2022-12-19T20:11:21.648Z,100260.72
2022-12-19T20:13:48.535Z,100229.94
2022-12-19T20:16:18.232Z,100223.09
2022-12-19T20:18:50.545Z,100224.78
2022-12-19T20:21:18.774Z,100223.94
2022-12-19T20:23:45.869Z,100213.66
2022-12-19T20:26:14.096Z,100229.91
2022-12-19T20:28:47.835Z,100230.72
2022-12-19T20:31:21.198Z,100227.31
2022-12-19T20:33:48.729Z,100221.34
2022-12-19T20:36:16.575Z,100224.75
2022-12-19T20:38:44.037Z,100226.44
2022-12-19T20:41:11.079Z,100224.75
2022-12-19T20:43:38.852Z,100223.09
2022-12-19T20:46:12.280Z,100237.63
2022-12-19T20:48:39.791Z,100234.22
2022-12-19T20:51:07.710Z,100230.78
2022-12-19T20:53:35.960Z,100233.34
2022-12-19T20:56:05.676Z,100235.91
2022-12-19T20:58:35.380Z,100230.78
2022-12-19T21:01:20.632Z,100234.22
2022-12-19T21:03:48.560Z,100227.38
2022-12-19T21:06:18.761Z,100238.53
2022-12-19T21:08:46.705Z,100235.09
2022-12-19T21:11:15.548Z,100220.56
2022-12-19T21:13:43.439Z,100229.13
2022-12-19T21:16:13.675Z,100226.56
2022-12-19T21:18:42.040Z,100228.28
2022-12-19T21:21:13.517Z,100224.84
2022-12-19T21:23:41.237Z,100218.88
2022-12-19T21:26:09.071Z,100223.16
2022-12-19T21:28:36.068Z,100213.72
2022-12-19T21:31:06.804Z,100214.59
2022-12-19T21:33:34.206Z,100222.28
2022-12-19T21:36:13.490Z,100223.16
2022-12-19T21:38:40.699Z,100213.72
2022-12-19T21:41:08.809Z,100214.59
2022-12-19T21:43:36.797Z,100213.72
2022-12-19T21:46:09.338Z,100212.88
2022-12-19T21:48:41.169Z,100205.16
2022-12-19T21:51:09.732Z,100192.31
2022-12-19T21:53:38.001Z,100191.47
2022-12-19T21:56:07.969Z,100191.47
2022-12-19T21:58:35.349Z,100188.06
2022-12-19T22:01:11.260Z,100190.59
2022-12-19T22:03:39.211Z,100200.88
2022-12-19T22:06:11.690Z,100192.31
2022-12-19T22:08:38.722Z,100185.47
2022-12-19T22:11:13.902Z,100190.59
2022-12-19T22:13:41.568Z,100182.03
2022-12-19T22:16:09.894Z,100176.91
2022-12-19T22:18:37.435Z,100176.06
2022-12-19T22:21:05.461Z,100170.94
2022-12-19T22:23:32.667Z,100170.94
2022-12-19T22:26:13.480Z,100172.66
2022-12-19T22:28:42.654Z,100161.53
2022-12-19T22:31:24.851Z,100168.38
2022-12-19T22:34:03.237Z,100159.78
2022-12-19T22:36:32.248Z,100166.66
2022-12-19T22:39:01.235Z,100161.50
2022-12-19T22:41:30.085Z,100156.38
2022-12-19T22:43:57.066Z,100150.38
2022-12-19T22:46:29.806Z,100146.09
2022-12-19T22:48:59.190Z,100146.97
2022-12-19T22:51:27.494Z,100143.56
2022-12-19T22:53:55.250Z,100148.69
2022-12-19T22:56:24.669Z,100145.25
2022-12-19T22:58:53.842Z,100143.56
2022-12-19T23:01:26.493Z,100140.13
2022-12-19T23:03:56.806Z,100133.31
2022-12-19T23:06:25.985Z,100133.28
2022-12-19T23:08:53.839Z,100127.31
2022-12-19T23:11:23.819Z,100137.59
2022-12-19T23:13:51.207Z,100136.75
2022-12-19T23:16:18.769Z,100130.72
2022-12-19T23:18:45.860Z,100129.03
2022-12-19T23:21:21.378Z,100129.00
2022-12-19T23:23:51.554Z,100127.28
2022-12-19T23:26:23.762Z,100124.72
2022-12-19T23:29:04.027Z,100127.31
2022-12-19T23:31:31.346Z,100129.00
2022-12-19T23:33:59.264Z,100130.69
2022-12-19T23:39:14.014Z,100123.84
2022-12-19T23:41:41.009Z,100127.28
2022-12-19T23:44:09.284Z,100113.56
2022-12-19T23:46:36.826Z,100124.69
2022-12-19T23:49:04.272Z,100122.94
2022-12-19T23:51:31.468Z,100121.28
2022-12-19T23:53:58.598Z,100120.38
2022-12-19T23:56:28.591Z,100128.09
2022-12-19T23:58:56.119Z,100123.81
